sensor_id;sensor_type;location;lat;lon;timestamp;P1;durP1;ratioP1;P2;durP2;ratioP2
42662;SDS011;44330;51.360;6.686;2023-07-09T00:01:59;6.97;;;4.65;;
42662;SDS011;44330;51.360;6.686;2023-07-09T00:04:24;7.75;;;5.57;;
42662;SDS011;44330;51.360;6.686;2023-07-09T00:06:50;9.20;;;5.57;;
42662;SDS011;44330;51.360;6.686;2023-07-09T00:09:19;9.45;;;5.40;;
42662;SDS011;44330;51.360;6.686;2023-07-09T00:11:46;9.68;;;5.57;;
42662;SDS011;44330;51.360;6.686;2023-07-09T00:14:13;6.95;;;5.20;;
42662;SDS011;44330;51.360;6.686;2023-07-09T00:16:41;8.43;;;5.30;;
42662;SDS011;44330;51.360;6.686;2023-07-09T00:19:11;9.40;;;5.28;;
42662;SDS011;44330;51.360;6.686;2023-07-09T00:21:38;8.98;;;5.20;;
42662;SDS011;44330;51.360;6.686;2023-07-09T00:24:05;7.35;;;4.95;;
42662;SDS011;44330;51.360;6.686;2023-07-09T00:26:32;8.23;;;5.25;;
42662;SDS011;44330;51.360;6.686;2023-07-09T00:29:00;7.38;;;4.72;;
42662;SDS011;44330;51.360;6.686;2023-07-09T00:31:26;10.07;;;5.40;;
42662;SDS011;44330;51.360;6.686;2023-07-09T00:33:52;7.38;;;4.55;;
42662;SDS011;44330;51.360;6.686;2023-07-09T00:36:20;8.43;;;5.82;;
42662;SDS011;44330;51.360;6.686;2023-07-09T00:38:51;9.80;;;5.68;;
42662;SDS011;44330;51.360;6.686;2023-07-09T00:41:18;9.55;;;5.90;;
42662;SDS011;44330;51.360;6.686;2023-07-09T00:43:45;8.82;;;5.65;;
42662;SDS011;44330;51.360;6.686;2023-07-09T00:49:05;8.25;;;4.95;;
42662;SDS011;44330;51.360;6.686;2023-07-09T00:51:36;9.45;;;5.40;;
42662;SDS011;44330;51.360;6.686;2023-07-09T00:54:13;8.80;;;4.93;;
42662;SDS011;44330;51.360;6.686;2023-07-09T00:56:46;11.20;;;5.03;;
42662;SDS011;44330;51.360;6.686;2023-07-09T00:59:17;10.38;;;5.25;;
42662;SDS011;44330;51.360;6.686;2023-07-09T01:01:47;11.43;;;5.88;;
42662;SDS011;44330;51.360;6.686;2023-07-09T01:04:15;11.23;;;5.70;;
42662;SDS011;44330;51.360;6.686;2023-07-09T01:06:47;10.07;;;5.85;;
42662;SDS011;44330;51.360;6.686;2023-07-09T01:09:16;10.02;;;5.43;;
42662;SDS011;44330;51.360;6.686;2023-07-09T01:11:42;7.95;;;5.25;;
42662;SDS011;44330;51.360;6.686;2023-07-09T01:14:10;10.35;;;5.47;;
42662;SDS011;44330;51.360;6.686;2023-07-09T01:16:48;8.15;;;5.05;;
42662;SDS011;44330;51.360;6.686;2023-07-09T01:19:25;8.10;;;5.00;;
42662;SDS011;44330;51.360;6.686;2023-07-09T01:22:00;10.48;;;5.55;;
42662;SDS011;44330;51.360;6.686;2023-07-09T01:27:27;11.48;;;5.70;;
42662;SDS011;44330;51.360;6.686;2023-07-09T01:29:58;17.75;;;5.40;;
42662;SDS011;44330;51.360;6.686;2023-07-09T01:32:25;11.00;;;5.40;;
42662;SDS011;44330;51.360;6.686;2023-07-09T01:34:52;9.25;;;5.47;;
42662;SDS011;44330;51.360;6.686;2023-07-09T01:37:19;8.25;;;5.43;;
42662;SDS011;44330;51.360;6.686;2023-07-09T01:42:14;8.95;;;5.53;;
42662;SDS011;44330;51.360;6.686;2023-07-09T01:44:40;8.27;;;5.28;;
42662;SDS011;44330;51.360;6.686;2023-07-09T01:47:06;9.82;;;5.57;;
42662;SDS011;44330;51.360;6.686;2023-07-09T01:49:32;8.80;;;5.85;;
42662;SDS011;44330;51.360;6.686;2023-07-09T01:52:01;8.85;;;5.10;;
42662;SDS011;44330;51.360;6.686;2023-07-09T01:54:28;9.32;;;5.65;;
42662;SDS011;44330;51.360;6.686;2023-07-09T01:57:11;10.80;;;5.95;;
42662;SDS011;44330;51.360;6.686;2023-07-09T01:59:58;10.57;;;6.30;;
42662;SDS011;44330;51.360;6.686;2023-07-09T02:02:30;10.32;;;6.07;;
42662;SDS011;44330;51.360;6.686;2023-07-09T02:04:57;9.18;;;5.68;;
42662;SDS011;44330;51.360;6.686;2023-07-09T02:07:24;10.10;;;5.57;;
42662;SDS011;44330;51.360;6.686;2023-07-09T02:09:50;9.95;;;5.35;;
42662;SDS011;44330;51.360;6.686;2023-07-09T02:12:18;11.15;;;5.78;;
42662;SDS011;44330;51.360;6.686;2023-07-09T02:14:44;13.25;;;5.78;;
42662;SDS011;44330;51.360;6.686;2023-07-09T02:17:11;8.63;;;5.47;;
42662;SDS011;44330;51.360;6.686;2023-07-09T02:19:38;11.43;;;6.05;;
42662;SDS011;44330;51.360;6.686;2023-07-09T02:22:04;9.65;;;5.80;;
42662;SDS011;44330;51.360;6.686;2023-07-09T02:24:30;9.25;;;5.22;;
42662;SDS011;44330;51.360;6.686;2023-07-09T02:26:58;11.10;;;5.70;;
42662;SDS011;44330;51.360;6.686;2023-07-09T02:29:25;9.18;;;5.90;;
42662;SDS011;44330;51.360;6.686;2023-07-09T02:31:54;11.57;;;5.75;;
42662;SDS011;44330;51.360;6.686;2023-07-09T02:34:20;10.25;;;5.65;;
42662;SDS011;44330;51.360;6.686;2023-07-09T02:36:50;11.25;;;5.93;;
42662;SDS011;44330;51.360;6.686;2023-07-09T02:39:20;10.57;;;5.38;;
42662;SDS011;44330;51.360;6.686;2023-07-09T02:41:47;13.02;;;6.93;;
42662;SDS011;44330;51.360;6.686;2023-07-09T02:44:13;12.52;;;5.22;;
42662;SDS011;44330;51.360;6.686;2023-07-09T02:46:38;9.60;;;5.43;;
42662;SDS011;44330;51.360;6.686;2023-07-09T02:49:04;11.65;;;5.28;;
42662;SDS011;44330;51.360;6.686;2023-07-09T02:51:31;9.88;;;5.20;;
42662;SDS011;44330;51.360;6.686;2023-07-09T02:53:57;9.02;;;5.10;;
42662;SDS011;44330;51.360;6.686;2023-07-09T02:56:25;9.85;;;5.22;;
42662;SDS011;44330;51.360;6.686;2023-07-09T02:58:51;11.60;;;5.43;;
42662;SDS011;44330;51.360;6.686;2023-07-09T03:01:17;9.02;;;5.20;;
42662;SDS011;44330;51.360;6.686;2023-07-09T03:03:46;10.52;;;6.00;;
42662;SDS011;44330;51.360;6.686;2023-07-09T03:06:12;10.43;;;5.22;;
42662;SDS011;44330;51.360;6.686;2023-07-09T03:08:37;11.90;;;6.07;;
42662;SDS011;44330;51.360;6.686;2023-07-09T03:11:12;9.73;;;5.40;;
42662;SDS011;44330;51.360;6.686;2023-07-09T03:13:39;10.30;;;5.68;;
42662;SDS011;44330;51.360;6.686;2023-07-09T03:16:04;12.93;;;5.40;;
42662;SDS011;44330;51.360;6.686;2023-07-09T03:18:30;8.63;;;5.32;;
42662;SDS011;44330;51.360;6.686;2023-07-09T03:20:57;15.05;;;5.72;;
42662;SDS011;44330;51.360;6.686;2023-07-09T03:23:23;11.73;;;6.00;;
42662;SDS011;44330;51.360;6.686;2023-07-09T03:25:48;10.88;;;5.95;;
42662;SDS011;44330;51.360;6.686;2023-07-09T03:28:14;10.43;;;5.50;;
42662;SDS011;44330;51.360;6.686;2023-07-09T03:30:44;11.45;;;5.70;;
42662;SDS011;44330;51.360;6.686;2023-07-09T03:33:12;8.30;;;5.22;;
42662;SDS011;44330;51.360;6.686;2023-07-09T03:35:39;9.13;;;5.63;;
42662;SDS011;44330;51.360;6.686;2023-07-09T03:38:05;8.23;;;5.30;;
42662;SDS011;44330;51.360;6.686;2023-07-09T03:40:31;11.45;;;6.10;;
42662;SDS011;44330;51.360;6.686;2023-07-09T03:42:56;10.95;;;5.70;;
42662;SDS011;44330;51.360;6.686;2023-07-09T03:45:22;10.50;;;5.90;;
42662;SDS011;44330;51.360;6.686;2023-07-09T03:47:48;10.82;;;5.70;;
42662;SDS011;44330;51.360;6.686;2023-07-09T03:50:15;13.05;;;5.72;;
42662;SDS011;44330;51.360;6.686;2023-07-09T03:52:41;10.05;;;5.32;;
42662;SDS011;44330;51.360;6.686;2023-07-09T03:55:07;9.18;;;5.55;;
42662;SDS011;44330;51.360;6.686;2023-07-09T03:57:34;11.13;;;5.90;;
42662;SDS011;44330;51.360;6.686;2023-07-09T04:00:00;12.23;;;7.22;;
42662;SDS011;44330;51.360;6.686;2023-07-09T04:02:26;9.55;;;5.82;;
42662;SDS011;44330;51.360;6.686;2023-07-09T04:04:53;8.88;;;5.18;;
42662;SDS011;44330;51.360;6.686;2023-07-09T04:07:18;12.93;;;5.45;;
42662;SDS011;44330;51.360;6.686;2023-07-09T04:09:44;13.20;;;5.88;;
42662;SDS011;44330;51.360;6.686;2023-07-09T04:12:10;12.32;;;6.10;;
42662;SDS011;44330;51.360;6.686;2023-07-09T04:14:35;9.40;;;6.05;;
42662;SDS011;44330;51.360;6.686;2023-07-09T04:17:01;8.27;;;5.35;;
42662;SDS011;44330;51.360;6.686;2023-07-09T04:19:27;9.25;;;6.03;;
42662;SDS011;44330;51.360;6.686;2023-07-09T04:21:53;12.40;;;6.35;;
42662;SDS011;44330;51.360;6.686;2023-07-09T04:24:19;10.73;;;5.85;;
42662;SDS011;44330;51.360;6.686;2023-07-09T04:26:46;16.88;;;6.28;;
42662;SDS011;44330;51.360;6.686;2023-07-09T04:29:12;12.95;;;6.53;;
42662;SDS011;44330;51.360;6.686;2023-07-09T04:31:39;9.80;;;5.68;;
42662;SDS011;44330;51.360;6.686;2023-07-09T04:34:05;18.50;;;6.30;;
42662;SDS011;44330;51.360;6.686;2023-07-09T04:36:31;12.48;;;5.53;;
42662;SDS011;44330;51.360;6.686;2023-07-09T04:38:57;9.02;;;5.07;;
42662;SDS011;44330;51.360;6.686;2023-07-09T04:41:23;12.40;;;5.60;;
42662;SDS011;44330;51.360;6.686;2023-07-09T04:43:48;13.18;;;5.88;;
42662;SDS011;44330;51.360;6.686;2023-07-09T04:46:14;9.75;;;6.20;;
42662;SDS011;44330;51.360;6.686;2023-07-09T04:48:40;12.63;;;6.05;;
42662;SDS011;44330;51.360;6.686;2023-07-09T04:51:06;10.02;;;5.45;;
42662;SDS011;44330;51.360;6.686;2023-07-09T04:53:32;14.32;;;5.70;;
42662;SDS011;44330;51.360;6.686;2023-07-09T04:55:57;10.43;;;5.70;;
42662;SDS011;44330;51.360;6.686;2023-07-09T04:58:23;9.00;;;5.70;;
42662;SDS011;44330;51.360;6.686;2023-07-09T05:00:49;11.18;;;5.65;;
42662;SDS011;44330;51.360;6.686;2023-07-09T05:03:16;12.75;;;5.78;;
42662;SDS011;44330;51.360;6.686;2023-07-09T05:05:44;9.65;;;5.78;;
42662;SDS011;44330;51.360;6.686;2023-07-09T05:08:12;11.05;;;5.45;;
42662;SDS011;44330;51.360;6.686;2023-07-09T05:10:45;12.57;;;5.32;;
42662;SDS011;44330;51.360;6.686;2023-07-09T05:13:14;8.65;;;5.38;;
42662;SDS011;44330;51.360;6.686;2023-07-09T05:15:41;11.75;;;5.90;;
42662;SDS011;44330;51.360;6.686;2023-07-09T05:18:08;12.07;;;5.15;;
42662;SDS011;44330;51.360;6.686;2023-07-09T05:20:34;13.32;;;6.28;;
42662;SDS011;44330;51.360;6.686;2023-07-09T05:22:59;8.23;;;5.18;;
42662;SDS011;44330;51.360;6.686;2023-07-09T05:25:25;11.57;;;5.38;;
42662;SDS011;44330;51.360;6.686;2023-07-09T05:27:51;10.80;;;5.70;;
42662;SDS011;44330;51.360;6.686;2023-07-09T05:30:16;9.50;;;5.22;;
42662;SDS011;44330;51.360;6.686;2023-07-09T05:32:43;12.65;;;5.32;;
42662;SDS011;44330;51.360;6.686;2023-07-09T05:35:09;8.68;;;5.53;;
42662;SDS011;44330;51.360;6.686;2023-07-09T05:37:35;16.25;;;5.40;;
42662;SDS011;44330;51.360;6.686;2023-07-09T05:40:02;8.70;;;5.10;;
42662;SDS011;44330;51.360;6.686;2023-07-09T05:42:30;16.40;;;6.55;;
42662;SDS011;44330;51.360;6.686;2023-07-09T05:44:56;9.85;;;5.10;;
42662;SDS011;44330;51.360;6.686;2023-07-09T05:47:23;10.82;;;5.10;;
42662;SDS011;44330;51.360;6.686;2023-07-09T05:49:50;10.73;;;5.18;;
42662;SDS011;44330;51.360;6.686;2023-07-09T05:52:19;10.50;;;5.07;;
42662;SDS011;44330;51.360;6.686;2023-07-09T05:54:48;10.90;;;5.20;;
42662;SDS011;44330;51.360;6.686;2023-07-09T05:57:14;9.18;;;5.07;;
42662;SDS011;44330;51.360;6.686;2023-07-09T05:59:39;11.48;;;5.60;;
42662;SDS011;44330;51.360;6.686;2023-07-09T06:02:07;9.35;;;5.63;;
42662;SDS011;44330;51.360;6.686;2023-07-09T06:04:36;9.95;;;4.75;;
42662;SDS011;44330;51.360;6.686;2023-07-09T06:07:02;10.98;;;5.20;;
42662;SDS011;44330;51.360;6.686;2023-07-09T06:09:29;13.80;;;5.03;;
42662;SDS011;44330;51.360;6.686;2023-07-09T06:11:55;12.13;;;4.80;;
42662;SDS011;44330;51.360;6.686;2023-07-09T06:14:21;8.48;;;4.32;;
42662;SDS011;44330;51.360;6.686;2023-07-09T06:16:46;11.13;;;5.30;;
42662;SDS011;44330;51.360;6.686;2023-07-09T06:19:12;6.28;;;4.82;;
42662;SDS011;44330;51.360;6.686;2023-07-09T06:21:38;10.07;;;5.03;;
42662;SDS011;44330;51.360;6.686;2023-07-09T06:24:05;7.35;;;4.82;;
42662;SDS011;44330;51.360;6.686;2023-07-09T06:26:32;9.13;;;4.60;;
42662;SDS011;44330;51.360;6.686;2023-07-09T06:28:57;13.98;;;5.53;;
42662;SDS011;44330;51.360;6.686;2023-07-09T06:31:23;7.95;;;4.90;;
42662;SDS011;44330;51.360;6.686;2023-07-09T06:33:51;9.88;;;4.88;;
42662;SDS011;44330;51.360;6.686;2023-07-09T06:36:17;9.77;;;5.20;;
42662;SDS011;44330;51.360;6.686;2023-07-09T06:38:43;9.85;;;4.45;;
42662;SDS011;44330;51.360;6.686;2023-07-09T06:41:10;11.80;;;5.00;;
42662;SDS011;44330;51.360;6.686;2023-07-09T06:43:35;10.90;;;5.35;;
42662;SDS011;44330;51.360;6.686;2023-07-09T06:46:04;7.63;;;5.20;;
42662;SDS011;44330;51.360;6.686;2023-07-09T06:48:32;7.83;;;4.50;;
42662;SDS011;44330;51.360;6.686;2023-07-09T06:50:58;8.63;;;4.90;;
42662;SDS011;44330;51.360;6.686;2023-07-09T06:53:24;7.25;;;4.88;;
42662;SDS011;44330;51.360;6.686;2023-07-09T06:55:54;9.05;;;4.68;;
42662;SDS011;44330;51.360;6.686;2023-07-09T06:58:23;7.75;;;5.05;;
42662;SDS011;44330;51.360;6.686;2023-07-09T07:00:50;8.57;;;4.55;;
42662;SDS011;44330;51.360;6.686;2023-07-09T07:03:16;9.25;;;4.60;;
42662;SDS011;44330;51.360;6.686;2023-07-09T07:05:46;8.27;;;5.05;;
42662;SDS011;44330;51.360;6.686;2023-07-09T07:08:14;5.43;;;4.30;;
42662;SDS011;44330;51.360;6.686;2023-07-09T07:10:41;11.85;;;4.75;;
42662;SDS011;44330;51.360;6.686;2023-07-09T07:13:07;9.30;;;4.32;;
42662;SDS011;44330;51.360;6.686;2023-07-09T07:15:33;7.07;;;4.35;;
42662;SDS011;44330;51.360;6.686;2023-07-09T07:17:59;9.50;;;4.82;;
42662;SDS011;44330;51.360;6.686;2023-07-09T07:20:24;8.20;;;4.85;;
42662;SDS011;44330;51.360;6.686;2023-07-09T07:22:50;8.02;;;4.93;;
42662;SDS011;44330;51.360;6.686;2023-07-09T07:25:16;8.02;;;4.72;;
42662;SDS011;44330;51.360;6.686;2023-07-09T07:27:41;11.48;;;5.00;;
42662;SDS011;44330;51.360;6.686;2023-07-09T07:30:07;7.88;;;5.28;;
42662;SDS011;44330;51.360;6.686;2023-07-09T07:32:37;6.70;;;5.03;;
42662;SDS011;44330;51.360;6.686;2023-07-09T07:35:07;11.02;;;4.95;;
42662;SDS011;44330;51.360;6.686;2023-07-09T07:37:32;10.00;;;5.32;;
42662;SDS011;44330;51.360;6.686;2023-07-09T07:39:58;13.65;;;5.22;;
42662;SDS011;44330;51.360;6.686;2023-07-09T07:42:24;10.18;;;4.85;;
42662;SDS011;44330;51.360;6.686;2023-07-09T07:44:50;8.77;;;4.75;;
42662;SDS011;44330;51.360;6.686;2023-07-09T07:47:15;10.55;;;4.68;;
42662;SDS011;44330;51.360;6.686;2023-07-09T07:49:41;9.05;;;4.95;;
42662;SDS011;44330;51.360;6.686;2023-07-09T07:52:06;9.90;;;4.90;;
42662;SDS011;44330;51.360;6.686;2023-07-09T07:54:32;7.50;;;5.22;;
42662;SDS011;44330;51.360;6.686;2023-07-09T07:56:58;10.43;;;4.75;;
42662;SDS011;44330;51.360;6.686;2023-07-09T07:59:24;8.70;;;5.03;;
42662;SDS011;44330;51.360;6.686;2023-07-09T08:01:49;7.35;;;4.55;;
42662;SDS011;44330;51.360;6.686;2023-07-09T08:04:15;10.18;;;4.80;;
42662;SDS011;44330;51.360;6.686;2023-07-09T08:06:41;9.55;;;4.28;;
42662;SDS011;44330;51.360;6.686;2023-07-09T08:09:06;7.40;;;4.90;;
42662;SDS011;44330;51.360;6.686;2023-07-09T08:11:32;13.23;;;5.28;;
42662;SDS011;44330;51.360;6.686;2023-07-09T08:13:58;7.70;;;4.85;;
42662;SDS011;44330;51.360;6.686;2023-07-09T08:16:24;8.43;;;4.90;;
42662;SDS011;44330;51.360;6.686;2023-07-09T08:18:49;11.70;;;5.47;;
42662;SDS011;44330;51.360;6.686;2023-07-09T08:21:17;7.90;;;5.22;;
42662;SDS011;44330;51.360;6.686;2023-07-09T08:23:42;8.20;;;4.90;;
42662;SDS011;44330;51.360;6.686;2023-07-09T08:26:08;5.50;;;4.57;;
42662;SDS011;44330;51.360;6.686;2023-07-09T08:28:34;7.97;;;4.82;;
42662;SDS011;44330;51.360;6.686;2023-07-09T08:31:00;6.72;;;4.50;;
42662;SDS011;44330;51.360;6.686;2023-07-09T08:33:26;9.40;;;4.80;;
42662;SDS011;44330;51.360;6.686;2023-07-09T08:35:52;8.13;;;4.85;;
42662;SDS011;44330;51.360;6.686;2023-07-09T08:38:19;8.48;;;4.47;;
42662;SDS011;44330;51.360;6.686;2023-07-09T08:40:58;6.53;;;4.38;;
42662;SDS011;44330;51.360;6.686;2023-07-09T08:49:12;6.15;;;4.30;;
42662;SDS011;44330;51.360;6.686;2023-07-09T08:51:48;6.07;;;4.95;;
42662;SDS011;44330;51.360;6.686;2023-07-09T08:54:28;7.47;;;4.70;;
42662;SDS011;44330;51.360;6.686;2023-07-09T08:56:59;11.02;;;5.10;;
42662;SDS011;44330;51.360;6.686;2023-07-09T08:59:39;20.05;;;4.97;;
42662;SDS011;44330;51.360;6.686;2023-07-09T09:02:09;9.68;;;5.13;;
42662;SDS011;44330;51.360;6.686;2023-07-09T09:04:46;9.85;;;5.07;;
42662;SDS011;44330;51.360;6.686;2023-07-09T09:07:19;9.52;;;4.55;;
42662;SDS011;44330;51.360;6.686;2023-07-09T09:10:01;13.20;;;5.18;;
42662;SDS011;44330;51.360;6.686;2023-07-09T09:12:29;8.18;;;4.43;;
42662;SDS011;44330;51.360;6.686;2023-07-09T09:15:14;7.50;;;4.25;;
42662;SDS011;44330;51.360;6.686;2023-07-09T09:17:42;6.78;;;4.70;;
42662;SDS011;44330;51.360;6.686;2023-07-09T09:20:09;7.88;;;4.47;;
42662;SDS011;44330;51.360;6.686;2023-07-09T09:22:47;6.30;;;4.50;;
42662;SDS011;44330;51.360;6.686;2023-07-09T09:25:24;7.90;;;4.72;;
42662;SDS011;44330;51.360;6.686;2023-07-09T09:27:53;7.25;;;4.80;;
42662;SDS011;44330;51.360;6.686;2023-07-09T09:30:28;6.88;;;4.55;;
42662;SDS011;44330;51.360;6.686;2023-07-09T09:35:26;14.65;;;4.93;;
42662;SDS011;44330;51.360;6.686;2023-07-09T09:37:57;10.80;;;4.93;;
42662;SDS011;44330;51.360;6.686;2023-07-09T09:40:24;5.22;;;4.40;;
42662;SDS011;44330;51.360;6.686;2023-07-09T09:42:52;9.48;;;4.43;;
42662;SDS011;44330;51.360;6.686;2023-07-09T09:45:20;9.32;;;5.05;;
42662;SDS011;44330;51.360;6.686;2023-07-09T09:47:51;8.20;;;4.88;;
42662;SDS011;44330;51.360;6.686;2023-07-09T09:50:17;8.38;;;4.70;;
42662;SDS011;44330;51.360;6.686;2023-07-09T09:52:47;9.30;;;4.75;;
42662;SDS011;44330;51.360;6.686;2023-07-09T09:55:18;5.78;;;4.07;;
42662;SDS011;44330;51.360;6.686;2023-07-09T09:57:51;8.25;;;3.95;;
42662;SDS011;44330;51.360;6.686;2023-07-09T10:00:18;9.43;;;4.78;;
42662;SDS011;44330;51.360;6.686;2023-07-09T10:02:47;10.55;;;4.88;;
42662;SDS011;44330;51.360;6.686;2023-07-09T10:05:14;15.13;;;4.40;;
42662;SDS011;44330;51.360;6.686;2023-07-09T10:07:47;6.88;;;4.55;;
42662;SDS011;44330;51.360;6.686;2023-07-09T10:10:26;5.53;;;4.00;;
42662;SDS011;44330;51.360;6.686;2023-07-09T10:13:04;11.18;;;4.45;;
42662;SDS011;44330;51.360;6.686;2023-07-09T10:15:45;8.73;;;4.78;;
42662;SDS011;44330;51.360;6.686;2023-07-09T10:21:29;5.70;;;3.92;;
42662;SDS011;44330;51.360;6.686;2023-07-09T10:26:32;6.88;;;4.57;;
42662;SDS011;44330;51.360;6.686;2023-07-09T10:38:14;6.53;;;3.90;;
42662;SDS011;44330;51.360;6.686;2023-07-09T10:41:02;8.73;;;4.20;;
42662;SDS011;44330;51.360;6.686;2023-07-09T10:43:38;7.10;;;4.30;;
42662;SDS011;44330;51.360;6.686;2023-07-09T10:46:11;8.10;;;3.58;;
42662;SDS011;44330;51.360;6.686;2023-07-09T10:48:41;6.47;;;4.35;;
42662;SDS011;44330;51.360;6.686;2023-07-09T10:57:13;6.20;;;4.32;;
42662;SDS011;44330;51.360;6.686;2023-07-09T10:59:43;5.07;;;3.72;;
42662;SDS011;44330;51.360;6.686;2023-07-09T11:02:27;5.57;;;3.58;;
42662;SDS011;44330;51.360;6.686;2023-07-09T11:07:23;5.50;;;3.63;;
42662;SDS011;44330;51.360;6.686;2023-07-09T11:09:51;5.50;;;3.88;;
42662;SDS011;44330;51.360;6.686;2023-07-09T11:12:27;9.50;;;4.20;;
42662;SDS011;44330;51.360;6.686;2023-07-09T11:17:31;5.25;;;3.92;;
42662;SDS011;44330;51.360;6.686;2023-07-09T11:19:59;5.82;;;3.75;;
42662;SDS011;44330;51.360;6.686;2023-07-09T11:22:38;7.65;;;3.15;;
42662;SDS011;44330;51.360;6.686;2023-07-09T11:25:12;6.18;;;4.07;;
42662;SDS011;44330;51.360;6.686;2023-07-09T11:27:49;7.28;;;4.38;;
42662;SDS011;44330;51.360;6.686;2023-07-09T11:30:29;7.85;;;3.92;;
42662;SDS011;44330;51.360;6.686;2023-07-09T11:33:02;9.35;;;4.15;;
42662;SDS011;44330;51.360;6.686;2023-07-09T11:35:41;8.35;;;4.25;;
42662;SDS011;44330;51.360;6.686;2023-07-09T11:38:19;5.00;;;3.97;;
42662;SDS011;44330;51.360;6.686;2023-07-09T11:40:50;4.65;;;3.80;;
42662;SDS011;44330;51.360;6.686;2023-07-09T11:43:28;8.50;;;3.50;;
42662;SDS011;44330;51.360;6.686;2023-07-09T11:45:58;5.25;;;4.10;;
42662;SDS011;44330;51.360;6.686;2023-07-09T11:48:32;8.57;;;3.95;;
42662;SDS011;44330;51.360;6.686;2023-07-09T11:51:00;4.65;;;3.60;;
42662;SDS011;44330;51.360;6.686;2023-07-09T11:56:38;7.22;;;4.15;;
42662;SDS011;44330;51.360;6.686;2023-07-09T11:59:05;4.88;;;3.55;;
42662;SDS011;44330;51.360;6.686;2023-07-09T12:01:33;6.45;;;4.47;;
42662;SDS011;44330;51.360;6.686;2023-07-09T12:04:07;9.93;;;3.80;;
42662;SDS011;44330;51.360;6.686;2023-07-09T12:06:41;8.13;;;4.15;;
42662;SDS011;44330;51.360;6.686;2023-07-09T12:09:09;5.88;;;4.13;;
42662;SDS011;44330;51.360;6.686;2023-07-09T12:11:46;6.45;;;4.20;;
42662;SDS011;44330;51.360;6.686;2023-07-09T12:14:23;8.95;;;3.72;;
42662;SDS011;44330;51.360;6.686;2023-07-09T12:16:50;5.07;;;4.28;;
42662;SDS011;44330;51.360;6.686;2023-07-09T12:19:21;9.02;;;4.57;;
42662;SDS011;44330;51.360;6.686;2023-07-09T12:21:49;5.68;;;3.92;;
42662;SDS011;44330;51.360;6.686;2023-07-09T12:26:52;6.13;;;4.00;;
42662;SDS011;44330;51.360;6.686;2023-07-09T12:29:19;6.85;;;3.72;;
42662;SDS011;44330;51.360;6.686;2023-07-09T12:31:51;7.07;;;4.05;;
42662;SDS011;44330;51.360;6.686;2023-07-09T12:34:16;9.05;;;4.05;;
42662;SDS011;44330;51.360;6.686;2023-07-09T12:36:48;9.65;;;4.18;;
42662;SDS011;44330;51.360;6.686;2023-07-09T12:39:16;7.88;;;3.95;;
42662;SDS011;44330;51.360;6.686;2023-07-09T12:41:48;4.97;;;3.83;;
42662;SDS011;44330;51.360;6.686;2023-07-09T12:44:35;4.80;;;3.97;;
42662;SDS011;44330;51.360;6.686;2023-07-09T12:47:01;10.83;;;4.80;;
42662;SDS011;44330;51.360;6.686;2023-07-09T12:49:44;6.60;;;3.92;;
42662;SDS011;44330;51.360;6.686;2023-07-09T12:52:20;7.38;;;4.60;;
42662;SDS011;44330;51.360;6.686;2023-07-09T12:54:58;8.65;;;4.70;;
42662;SDS011;44330;51.360;6.686;2023-07-09T12:57:25;9.82;;;4.50;;
42662;SDS011;44330;51.360;6.686;2023-07-09T12:59:53;6.45;;;3.88;;
42662;SDS011;44330;51.360;6.686;2023-07-09T13:02:26;7.38;;;4.53;;
42662;SDS011;44330;51.360;6.686;2023-07-09T13:05:05;11.85;;;4.40;;
42662;SDS011;44330;51.360;6.686;2023-07-09T13:07:46;9.23;;;4.20;;
42662;SDS011;44330;51.360;6.686;2023-07-09T13:10:16;6.57;;;4.50;;
42662;SDS011;44330;51.360;6.686;2023-07-09T13:12:55;6.28;;;3.97;;
42662;SDS011;44330;51.360;6.686;2023-07-09T13:15:27;6.25;;;4.68;;
42662;SDS011;44330;51.360;6.686;2023-07-09T13:18:01;5.75;;;3.97;;
42662;SDS011;44330;51.360;6.686;2023-07-09T13:27:37;9.48;;;4.80;;
42662;SDS011;44330;51.360;6.686;2023-07-09T13:30:14;9.75;;;5.47;;
42662;SDS011;44330;51.360;6.686;2023-07-09T13:36:34;9.68;;;4.80;;
42662;SDS011;44330;51.360;6.686;2023-07-09T13:39:00;11.43;;;5.30;;
42662;SDS011;44330;51.360;6.686;2023-07-09T13:41:27;11.38;;;5.38;;
42662;SDS011;44330;51.360;6.686;2023-07-09T13:43:58;13.57;;;5.55;;
42662;SDS011;44330;51.360;6.686;2023-07-09T13:46:29;15.73;;;6.32;;
42662;SDS011;44330;51.360;6.686;2023-07-09T13:48:59;9.07;;;6.00;;
42662;SDS011;44330;51.360;6.686;2023-07-09T13:51:27;11.10;;;5.88;;
42662;SDS011;44330;51.360;6.686;2023-07-09T13:53:54;11.98;;;5.85;;
42662;SDS011;44330;51.360;6.686;2023-07-09T13:56:21;11.40;;;6.18;;
42662;SDS011;44330;51.360;6.686;2023-07-09T13:58:47;10.57;;;5.80;;
42662;SDS011;44330;51.360;6.686;2023-07-09T14:01:15;10.70;;;5.43;;
42662;SDS011;44330;51.360;6.686;2023-07-09T14:03:43;11.50;;;5.53;;
42662;SDS011;44330;51.360;6.686;2023-07-09T14:06:11;9.52;;;5.00;;
42662;SDS011;44330;51.360;6.686;2023-07-09T14:08:38;12.85;;;5.95;;
42662;SDS011;44330;51.360;6.686;2023-07-09T14:11:08;18.58;;;5.28;;
42662;SDS011;44330;51.360;6.686;2023-07-09T14:13:38;12.63;;;5.05;;
42662;SDS011;44330;51.360;6.686;2023-07-09T14:16:04;12.38;;;6.03;;
42662;SDS011;44330;51.360;6.686;2023-07-09T14:18:30;14.13;;;5.57;;
42662;SDS011;44330;51.360;6.686;2023-07-09T14:20:56;10.55;;;5.95;;
42662;SDS011;44330;51.360;6.686;2023-07-09T14:23:22;9.57;;;5.07;;
42662;SDS011;44330;51.360;6.686;2023-07-09T14:25:48;16.42;;;6.15;;
42662;SDS011;44330;51.360;6.686;2023-07-09T14:28:15;12.25;;;6.25;;
42662;SDS011;44330;51.360;6.686;2023-07-09T14:30:43;13.50;;;6.13;;
42662;SDS011;44330;51.360;6.686;2023-07-09T14:33:11;22.30;;;7.45;;
42662;SDS011;44330;51.360;6.686;2023-07-09T14:35:44;19.67;;;5.22;;
42662;SDS011;44330;51.360;6.686;2023-07-09T14:40:48;15.65;;;5.43;;
42662;SDS011;44330;51.360;6.686;2023-07-09T14:43:19;13.82;;;5.05;;
42662;SDS011;44330;51.360;6.686;2023-07-09T14:45:52;12.77;;;4.43;;
42662;SDS011;44330;51.360;6.686;2023-07-09T14:51:30;13.35;;;4.85;;
42662;SDS011;44330;51.360;6.686;2023-07-09T15:04:44;14.98;;;6.38;;
42662;SDS011;44330;51.360;6.686;2023-07-09T16:25:29;13.02;;;7.13;;
42662;SDS011;44330;51.360;6.686;2023-07-09T16:31:07;15.57;;;10.40;;
42662;SDS011;44330;51.360;6.686;2023-07-09T16:33:32;20.60;;;11.55;;
42662;SDS011;44330;51.360;6.686;2023-07-09T16:36:00;15.85;;;9.15;;
42662;SDS011;44330;51.360;6.686;2023-07-09T16:38:30;18.20;;;9.57;;
42662;SDS011;44330;51.360;6.686;2023-07-09T16:41:24;19.58;;;9.80;;
42662;SDS011;44330;51.360;6.686;2023-07-09T16:43:57;16.13;;;10.55;;
42662;SDS011;44330;51.360;6.686;2023-07-09T16:46:25;21.85;;;11.07;;
42662;SDS011;44330;51.360;6.686;2023-07-09T16:48:53;17.92;;;10.05;;
42662;SDS011;44330;51.360;6.686;2023-07-09T16:54:00;13.55;;;6.97;;
42662;SDS011;44330;51.360;6.686;2023-07-09T16:56:43;12.52;;;6.32;;
42662;SDS011;44330;51.360;6.686;2023-07-09T16:59:23;20.13;;;8.57;;
42662;SDS011;44330;51.360;6.686;2023-07-09T17:01:57;15.35;;;8.02;;
42662;SDS011;44330;51.360;6.686;2023-07-09T17:05:00;10.43;;;6.63;;
42662;SDS011;44330;51.360;6.686;2023-07-09T17:10:00;10.85;;;6.00;;
42662;SDS011;44330;51.360;6.686;2023-07-09T17:12:27;12.95;;;6.40;;
42662;SDS011;44330;51.360;6.686;2023-07-09T17:14:54;11.73;;;6.55;;
42662;SDS011;44330;51.360;6.686;2023-07-09T17:17:25;9.25;;;6.45;;
42662;SDS011;44330;51.360;6.686;2023-07-09T17:19:56;10.00;;;6.03;;
42662;SDS011;44330;51.360;6.686;2023-07-09T17:25:03;13.00;;;7.05;;
42662;SDS011;44330;51.360;6.686;2023-07-09T17:27:45;18.30;;;9.43;;
42662;SDS011;44330;51.360;6.686;2023-07-09T17:30:14;15.38;;;9.13;;
42662;SDS011;44330;51.360;6.686;2023-07-09T17:32:43;14.88;;;10.05;;
42662;SDS011;44330;51.360;6.686;2023-07-09T17:35:21;17.70;;;8.35;;
42662;SDS011;44330;51.360;6.686;2023-07-09T17:37:53;14.32;;;8.20;;